sensor_id;sensor_type;location;lat;lon;timestamp;P1;durP1;ratioP1;P2;durP2;ratioP2
25175;SDS011;13135;55.166;61.286;2023-08-01T00:01:15;20.73;;;11.95;;
25175;SDS011;13135;55.166;61.286;2023-08-01T00:04:01;24.90;;;11.43;;
25175;SDS011;13135;55.166;61.286;2023-08-01T00:06:51;23.27;;;12.05;;
25175;SDS011;13135;55.166;61.286;2023-08-01T00:09:38;23.30;;;11.43;;
25175;SDS011;13135;55.166;61.286;2023-08-01T00:12:23;24.12;;;11.40;;
25175;SDS011;13135;55.166;61.286;2023-08-01T00:15:10;29.05;;;12.52;;
25175;SDS011;13135;55.166;61.286;2023-08-01T00:17:55;28.17;;;12.40;;
25175;SDS011;13135;55.166;61.286;2023-08-01T00:20:41;27.73;;;11.70;;
25175;SDS011;13135;55.166;61.286;2023-08-01T00:23:27;28.48;;;12.60;;
25175;SDS011;13135;55.166;61.286;2023-08-01T00:26:11;34.45;;;13.98;;
25175;SDS011;13135;55.166;61.286;2023-08-01T00:28:56;33.83;;;13.70;;
25175;SDS011;13135;55.166;61.286;2023-08-01T00:31:41;32.42;;;12.68;;
25175;SDS011;13135;55.166;61.286;2023-08-01T00:34:26;30.67;;;13.00;;
25175;SDS011;13135;55.166;61.286;2023-08-01T00:37:11;25.65;;;12.68;;
25175;SDS011;13135;55.166;61.286;2023-08-01T00:39:55;26.17;;;12.93;;
25175;SDS011;13135;55.166;61.286;2023-08-01T00:42:40;22.60;;;14.68;;
25175;SDS011;13135;55.166;61.286;2023-08-01T00:45:25;16.42;;;11.63;;
25175;SDS011;13135;55.166;61.286;2023-08-01T00:48:08;17.45;;;11.48;;
25175;SDS011;13135;55.166;61.286;2023-08-01T00:50:53;21.83;;;13.30;;
25175;SDS011;13135;55.166;61.286;2023-08-01T00:53:37;17.48;;;11.65;;
25175;SDS011;13135;55.166;61.286;2023-08-01T00:56:24;19.23;;;11.93;;
25175;SDS011;13135;55.166;61.286;2023-08-01T00:59:08;17.77;;;11.75;;
25175;SDS011;13135;55.166;61.286;2023-08-01T01:01:54;19.67;;;12.35;;
25175;SDS011;13135;55.166;61.286;2023-08-01T01:04:37;20.27;;;12.37;;
25175;SDS011;13135;55.166;61.286;2023-08-01T01:07:21;16.80;;;11.48;;
25175;SDS011;13135;55.166;61.286;2023-08-01T01:10:06;16.85;;;11.30;;
25175;SDS011;13135;55.166;61.286;2023-08-01T01:12:47;17.45;;;10.82;;
25175;SDS011;13135;55.166;61.286;2023-08-01T01:15:34;15.30;;;10.82;;
25175;SDS011;13135;55.166;61.286;2023-08-01T01:18:15;15.05;;;11.20;;
25175;SDS011;13135;55.166;61.286;2023-08-01T01:21:01;18.12;;;11.75;;
25175;SDS011;13135;55.166;61.286;2023-08-01T01:23:46;17.65;;;11.65;;
25175;SDS011;13135;55.166;61.286;2023-08-01T01:26:30;16.10;;;10.98;;
25175;SDS011;13135;55.166;61.286;2023-08-01T01:29:14;16.00;;;11.55;;
25175;SDS011;13135;55.166;61.286;2023-08-01T01:32:00;16.00;;;11.07;;
25175;SDS011;13135;55.166;61.286;2023-08-01T01:34:44;15.35;;;10.85;;
25175;SDS011;13135;55.166;61.286;2023-08-01T01:37:26;16.27;;;11.30;;
25175;SDS011;13135;55.166;61.286;2023-08-01T01:40:10;15.55;;;10.57;;
25175;SDS011;13135;55.166;61.286;2023-08-01T01:42:56;15.65;;;10.80;;
25175;SDS011;13135;55.166;61.286;2023-08-01T01:45:41;16.67;;;11.07;;
25175;SDS011;13135;55.166;61.286;2023-08-01T01:48:30;13.80;;;10.38;;
25175;SDS011;13135;55.166;61.286;2023-08-01T01:51:17;16.90;;;11.63;;
25175;SDS011;13135;55.166;61.286;2023-08-01T01:54:04;16.65;;;12.07;;
25175;SDS011;13135;55.166;61.286;2023-08-01T01:56:52;18.95;;;12.70;;
25175;SDS011;13135;55.166;61.286;2023-08-01T01:59:37;20.33;;;12.02;;
25175;SDS011;13135;55.166;61.286;2023-08-01T02:02:24;15.18;;;11.68;;
25175;SDS011;13135;55.166;61.286;2023-08-01T02:05:11;16.83;;;11.98;;
25175;SDS011;13135;55.166;61.286;2023-08-01T02:07:58;21.35;;;13.65;;
25175;SDS011;13135;55.166;61.286;2023-08-01T02:10:49;21.60;;;14.45;;
25175;SDS011;13135;55.166;61.286;2023-08-01T02:14:05;23.15;;;14.18;;
25175;SDS011;13135;55.166;61.286;2023-08-01T02:16:51;25.95;;;16.35;;
25175;SDS011;13135;55.166;61.286;2023-08-01T02:19:36;23.10;;;15.07;;
25175;SDS011;13135;55.166;61.286;2023-08-01T02:22:21;26.85;;;17.00;;
25175;SDS011;13135;55.166;61.286;2023-08-01T02:25:08;31.92;;;19.27;;
25175;SDS011;13135;55.166;61.286;2023-08-01T02:27:52;31.30;;;19.75;;
25175;SDS011;13135;55.166;61.286;2023-08-01T02:30:36;35.10;;;21.92;;
25175;SDS011;13135;55.166;61.286;2023-08-01T02:33:21;34.92;;;21.33;;
25175;SDS011;13135;55.166;61.286;2023-08-01T02:36:07;38.35;;;19.30;;
25175;SDS011;13135;55.166;61.286;2023-08-01T02:38:51;29.83;;;17.37;;
25175;SDS011;13135;55.166;61.286;2023-08-01T02:41:38;32.25;;;16.10;;
25175;SDS011;13135;55.166;61.286;2023-08-01T02:44:25;27.50;;;14.55;;
25175;SDS011;13135;55.166;61.286;2023-08-01T02:47:10;27.70;;;14.40;;
25175;SDS011;13135;55.166;61.286;2023-08-01T02:49:54;25.15;;;13.90;;
25175;SDS011;13135;55.166;61.286;2023-08-01T02:52:41;26.02;;;13.77;;
25175;SDS011;13135;55.166;61.286;2023-08-01T02:55:28;24.67;;;15.65;;
25175;SDS011;13135;55.166;61.286;2023-08-01T02:58:13;21.45;;;14.20;;
25175;SDS011;13135;55.166;61.286;2023-08-01T03:00:58;26.85;;;17.75;;
25175;SDS011;13135;55.166;61.286;2023-08-01T03:03:44;25.88;;;15.57;;
25175;SDS011;13135;55.166;61.286;2023-08-01T03:06:30;27.60;;;16.95;;
25175;SDS011;13135;55.166;61.286;2023-08-01T03:09:16;33.13;;;18.83;;
25175;SDS011;13135;55.166;61.286;2023-08-01T03:12:03;28.77;;;17.77;;
25175;SDS011;13135;55.166;61.286;2023-08-01T03:14:45;37.47;;;20.15;;
25175;SDS011;13135;55.166;61.286;2023-08-01T03:17:32;37.85;;;20.85;;
25175;SDS011;13135;55.166;61.286;2023-08-01T03:20:17;38.70;;;22.37;;
25175;SDS011;13135;55.166;61.286;2023-08-01T03:23:00;37.55;;;21.87;;
25175;SDS011;13135;55.166;61.286;2023-08-01T03:25:45;37.92;;;21.87;;
25175;SDS011;13135;55.166;61.286;2023-08-01T03:28:29;36.10;;;21.75;;
25175;SDS011;13135;55.166;61.286;2023-08-01T03:31:14;36.20;;;21.77;;
25175;SDS011;13135;55.166;61.286;2023-08-01T03:33:59;35.70;;;21.98;;
25175;SDS011;13135;55.166;61.286;2023-08-01T03:36:44;36.42;;;21.12;;
25175;SDS011;13135;55.166;61.286;2023-08-01T03:39:29;39.08;;;21.27;;
25175;SDS011;13135;55.166;61.286;2023-08-01T03:42:15;34.78;;;19.25;;
25175;SDS011;13135;55.166;61.286;2023-08-01T03:45:02;28.15;;;18.37;;
25175;SDS011;13135;55.166;61.286;2023-08-01T03:47:47;32.42;;;18.52;;
25175;SDS011;13135;55.166;61.286;2023-08-01T03:50:32;36.53;;;19.95;;
25175;SDS011;13135;55.166;61.286;2023-08-01T03:53:18;29.67;;;18.67;;
25175;SDS011;13135;55.166;61.286;2023-08-01T03:56:03;38.42;;;20.45;;
25175;SDS011;13135;55.166;61.286;2023-08-01T03:58:48;33.45;;;19.45;;
25175;SDS011;13135;55.166;61.286;2023-08-01T04:01:36;31.30;;;19.02;;
25175;SDS011;13135;55.166;61.286;2023-08-01T04:04:23;31.45;;;19.55;;
25175;SDS011;13135;55.166;61.286;2023-08-01T04:07:07;35.13;;;19.12;;
25175;SDS011;13135;55.166;61.286;2023-08-01T04:09:54;36.38;;;19.33;;
25175;SDS011;13135;55.166;61.286;2023-08-01T04:12:41;33.58;;;19.17;;
25175;SDS011;13135;55.166;61.286;2023-08-01T04:15:26;31.95;;;19.08;;
25175;SDS011;13135;55.166;61.286;2023-08-01T04:18:10;37.53;;;19.98;;
25175;SDS011;13135;55.166;61.286;2023-08-01T04:20:56;31.08;;;18.15;;
25175;SDS011;13135;55.166;61.286;2023-08-01T04:23:43;34.90;;;17.75;;
25175;SDS011;13135;55.166;61.286;2023-08-01T04:26:28;33.00;;;17.37;;
25175;SDS011;13135;55.166;61.286;2023-08-01T04:29:15;24.05;;;15.15;;
25175;SDS011;13135;55.166;61.286;2023-08-01T04:31:59;20.17;;;13.57;;
25175;SDS011;13135;55.166;61.286;2023-08-01T04:34:46;21.85;;;13.55;;
25175;SDS011;13135;55.166;61.286;2023-08-01T04:37:32;22.62;;;12.63;;
25175;SDS011;13135;55.166;61.286;2023-08-01T04:40:16;17.02;;;11.32;;
25175;SDS011;13135;55.166;61.286;2023-08-01T04:43:02;17.73;;;10.85;;
25175;SDS011;13135;55.166;61.286;2023-08-01T04:45:46;15.90;;;9.85;;
25175;SDS011;13135;55.166;61.286;2023-08-01T04:48:30;16.60;;;9.32;;
25175;SDS011;13135;55.166;61.286;2023-08-01T04:51:15;15.25;;;9.90;;
25175;SDS011;13135;55.166;61.286;2023-08-01T04:54:02;22.98;;;11.18;;
25175;SDS011;13135;55.166;61.286;2023-08-01T04:56:51;15.88;;;9.93;;
25175;SDS011;13135;55.166;61.286;2023-08-01T04:59:35;19.00;;;9.40;;
25175;SDS011;13135;55.166;61.286;2023-08-01T05:02:22;13.02;;;8.80;;
25175;SDS011;13135;55.166;61.286;2023-08-01T05:05:08;16.05;;;9.35;;
25175;SDS011;13135;55.166;61.286;2023-08-01T05:07:55;13.93;;;9.70;;
25175;SDS011;13135;55.166;61.286;2023-08-01T05:21:09;10.30;;;8.02;;
25175;SDS011;13135;55.166;61.286;2023-08-01T05:24:01;15.77;;;8.20;;
25175;SDS011;13135;55.166;61.286;2023-08-01T05:26:47;11.88;;;8.50;;
25175;SDS011;13135;55.166;61.286;2023-08-01T05:29:33;12.18;;;8.13;;
25175;SDS011;13135;55.166;61.286;2023-08-01T05:32:18;14.77;;;7.55;;
25175;SDS011;13135;55.166;61.286;2023-08-01T05:35:03;13.02;;;8.13;;
25175;SDS011;13135;55.166;61.286;2023-08-01T05:37:49;14.00;;;8.57;;
25175;SDS011;13135;55.166;61.286;2023-08-01T05:40:39;17.08;;;9.63;;
25175;SDS011;13135;55.166;61.286;2023-08-01T05:43:26;12.47;;;8.63;;
25175;SDS011;13135;55.166;61.286;2023-08-01T05:46:12;14.95;;;9.75;;
25175;SDS011;13135;55.166;61.286;2023-08-01T05:48:56;14.90;;;10.60;;
25175;SDS011;13135;55.166;61.286;2023-08-01T05:51:40;20.58;;;11.65;;
25175;SDS011;13135;55.166;61.286;2023-08-01T05:54:27;14.52;;;9.90;;
25175;SDS011;13135;55.166;61.286;2023-08-01T05:57:13;13.98;;;9.05;;
25175;SDS011;13135;55.166;61.286;2023-08-01T05:59:58;14.65;;;10.35;;
25175;SDS011;13135;55.166;61.286;2023-08-01T06:02:44;22.33;;;11.32;;
25175;SDS011;13135;55.166;61.286;2023-08-01T06:05:31;19.40;;;11.45;;
25175;SDS011;13135;55.166;61.286;2023-08-01T06:08:19;27.20;;;12.18;;
25175;SDS011;13135;55.166;61.286;2023-08-01T06:11:05;23.05;;;10.93;;
25175;SDS011;13135;55.166;61.286;2023-08-01T06:13:52;20.95;;;11.68;;
25175;SDS011;13135;55.166;61.286;2023-08-01T06:16:38;18.83;;;11.55;;
25175;SDS011;13135;55.166;61.286;2023-08-01T06:19:24;25.62;;;12.25;;
25175;SDS011;13135;55.166;61.286;2023-08-01T06:22:11;21.62;;;11.30;;
25175;SDS011;13135;55.166;61.286;2023-08-01T06:24:56;15.55;;;10.05;;
25175;SDS011;13135;55.166;61.286;2023-08-01T06:27:41;16.95;;;10.05;;
25175;SDS011;13135;55.166;61.286;2023-08-01T06:30:27;17.23;;;9.98;;
25175;SDS011;13135;55.166;61.286;2023-08-01T06:33:11;12.30;;;8.90;;
25175;SDS011;13135;55.166;61.286;2023-08-01T06:35:56;15.43;;;8.82;;
25175;SDS011;13135;55.166;61.286;2023-08-01T06:38:43;15.43;;;9.10;;
25175;SDS011;13135;55.166;61.286;2023-08-01T06:41:29;9.23;;;6.93;;
25175;SDS011;13135;55.166;61.286;2023-08-01T06:44:15;9.80;;;7.28;;
25175;SDS011;13135;55.166;61.286;2023-08-01T06:50:37;9.77;;;6.72;;
25175;SDS011;13135;55.166;61.286;2023-08-01T06:53:22;12.60;;;7.70;;
25175;SDS011;13135;55.166;61.286;2023-08-01T06:56:06;10.80;;;6.22;;
25175;SDS011;13135;55.166;61.286;2023-08-01T06:58:57;9.43;;;6.22;;
25175;SDS011;13135;55.166;61.286;2023-08-01T07:01:44;11.57;;;6.50;;
25175;SDS011;13135;55.166;61.286;2023-08-01T07:04:28;10.48;;;6.28;;
25175;SDS011;13135;55.166;61.286;2023-08-01T07:07:13;10.90;;;5.95;;
25175;SDS011;13135;55.166;61.286;2023-08-01T07:10:00;6.55;;;5.75;;
25175;SDS011;13135;55.166;61.286;2023-08-01T07:12:45;8.20;;;5.57;;
25175;SDS011;13135;55.166;61.286;2023-08-01T07:15:32;7.68;;;6.22;;
25175;SDS011;13135;55.166;61.286;2023-08-01T07:18:19;9.25;;;5.70;;
25175;SDS011;13135;55.166;61.286;2023-08-01T07:21:05;11.12;;;5.93;;
25175;SDS011;13135;55.166;61.286;2023-08-01T07:23:52;9.27;;;5.60;;
25175;SDS011;13135;55.166;61.286;2023-08-01T07:26:35;11.45;;;5.60;;
25175;SDS011;13135;55.166;61.286;2023-08-01T07:29:22;8.45;;;5.47;;
25175;SDS011;13135;55.166;61.286;2023-08-01T07:32:09;6.50;;;5.20;;
25175;SDS011;13135;55.166;61.286;2023-08-01T07:34:55;6.80;;;5.50;;
25175;SDS011;13135;55.166;61.286;2023-08-01T07:37:45;6.55;;;5.10;;
25175;SDS011;13135;55.166;61.286;2023-08-01T07:40:31;7.75;;;5.25;;
25175;SDS011;13135;55.166;61.286;2023-08-01T07:43:18;7.43;;;4.95;;
25175;SDS011;13135;55.166;61.286;2023-08-01T07:46:02;7.05;;;4.90;;
25175;SDS011;13135;55.166;61.286;2023-08-01T07:48:48;6.12;;;4.70;;
25175;SDS011;13135;55.166;61.286;2023-08-01T07:51:34;6.90;;;5.00;;
25175;SDS011;13135;55.166;61.286;2023-08-01T07:54:19;6.15;;;4.65;;
25175;SDS011;13135;55.166;61.286;2023-08-01T07:57:06;7.03;;;5.30;;
25175;SDS011;13135;55.166;61.286;2023-08-01T08:02:57;5.65;;;4.75;;
25175;SDS011;13135;55.166;61.286;2023-08-01T08:05:41;10.60;;;5.57;;
25175;SDS011;13135;55.166;61.286;2023-08-01T08:08:25;10.02;;;5.35;;
25175;SDS011;13135;55.166;61.286;2023-08-01T08:11:09;8.70;;;5.53;;
25175;SDS011;13135;55.166;61.286;2023-08-01T08:13:55;10.02;;;5.90;;
25175;SDS011;13135;55.166;61.286;2023-08-01T08:16:42;8.73;;;5.90;;
25175;SDS011;13135;55.166;61.286;2023-08-01T08:19:29;10.77;;;5.80;;
25175;SDS011;13135;55.166;61.286;2023-08-01T08:22:12;9.10;;;5.62;;
25175;SDS011;13135;55.166;61.286;2023-08-01T08:24:57;6.62;;;5.37;;
25175;SDS011;13135;55.166;61.286;2023-08-01T08:27:44;9.63;;;5.53;;
25175;SDS011;13135;55.166;61.286;2023-08-01T08:33:30;6.60;;;5.47;;
25175;SDS011;13135;55.166;61.286;2023-08-01T08:36:14;9.23;;;5.32;;
25175;SDS011;13135;55.166;61.286;2023-08-01T08:38:59;9.68;;;5.70;;
25175;SDS011;13135;55.166;61.286;2023-08-01T08:41:46;7.25;;;5.07;;
25175;SDS011;13135;55.166;61.286;2023-08-01T08:44:32;9.75;;;5.70;;
25175;SDS011;13135;55.166;61.286;2023-08-01T08:47:17;8.05;;;5.37;;
25175;SDS011;13135;55.166;61.286;2023-08-01T08:50:02;8.70;;;5.50;;
25175;SDS011;13135;55.166;61.286;2023-08-01T08:52:46;7.50;;;5.22;;
25175;SDS011;13135;55.166;61.286;2023-08-01T08:55:30;7.03;;;4.90;;
25175;SDS011;13135;55.166;61.286;2023-08-01T08:58:15;7.78;;;5.22;;
25175;SDS011;13135;55.166;61.286;2023-08-01T09:01:00;7.62;;;5.55;;
25175;SDS011;13135;55.166;61.286;2023-08-01T09:03:42;10.07;;;5.18;;
25175;SDS011;13135;55.166;61.286;2023-08-01T09:06:29;7.47;;;4.53;;
25175;SDS011;13135;55.166;61.286;2023-08-01T09:09:16;10.60;;;5.12;;
25175;SDS011;13135;55.166;61.286;2023-08-01T09:12:00;5.72;;;4.78;;
25175;SDS011;13135;55.166;61.286;2023-08-01T09:14:44;8.25;;;5.97;;
25175;SDS011;13135;55.166;61.286;2023-08-01T09:17:30;10.32;;;5.07;;
25175;SDS011;13135;55.166;61.286;2023-08-01T09:20:15;7.57;;;4.65;;
25175;SDS011;13135;55.166;61.286;2023-08-01T09:23:00;9.98;;;4.93;;
25175;SDS011;13135;55.166;61.286;2023-08-01T09:25:45;5.70;;;4.95;;
25175;SDS011;13135;55.166;61.286;2023-08-01T09:28:29;7.85;;;5.60;;
25175;SDS011;13135;55.166;61.286;2023-08-01T09:31:13;10.65;;;5.45;;
25175;SDS011;13135;55.166;61.286;2023-08-01T09:33:57;8.77;;;4.85;;
25175;SDS011;13135;55.166;61.286;2023-08-01T09:36:42;10.23;;;4.93;;
25175;SDS011;13135;55.166;61.286;2023-08-01T09:39:26;9.05;;;5.93;;
25175;SDS011;13135;55.166;61.286;2023-08-01T09:42:13;10.82;;;6.10;;
25175;SDS011;13135;55.166;61.286;2023-08-01T09:44:59;15.88;;;7.18;;
25175;SDS011;13135;55.166;61.286;2023-08-01T09:47:45;12.90;;;7.37;;
25175;SDS011;13135;55.166;61.286;2023-08-01T09:50:29;13.93;;;7.15;;
25175;SDS011;13135;55.166;61.286;2023-08-01T09:53:14;14.18;;;7.93;;
25175;SDS011;13135;55.166;61.286;2023-08-01T09:56:00;13.98;;;7.68;;
25175;SDS011;13135;55.166;61.286;2023-08-01T09:58:44;13.48;;;8.32;;
25175;SDS011;13135;55.166;61.286;2023-08-01T10:01:29;14.73;;;8.50;;
25175;SDS011;13135;55.166;61.286;2023-08-01T10:04:14;15.80;;;8.85;;
25175;SDS011;13135;55.166;61.286;2023-08-01T10:07:02;8.70;;;6.32;;
25175;SDS011;13135;55.166;61.286;2023-08-01T10:09:42;11.15;;;6.43;;
25175;SDS011;13135;55.166;61.286;2023-08-01T10:12:27;13.68;;;6.43;;
25175;SDS011;13135;55.166;61.286;2023-08-01T10:15:11;15.27;;;6.20;;
25175;SDS011;13135;55.166;61.286;2023-08-01T10:17:56;9.57;;;6.15;;
25175;SDS011;13135;55.166;61.286;2023-08-01T10:20:40;8.70;;;5.95;;
25175;SDS011;13135;55.166;61.286;2023-08-01T10:23:26;10.13;;;5.97;;
25175;SDS011;13135;55.166;61.286;2023-08-01T10:26:11;10.70;;;6.40;;
25175;SDS011;13135;55.166;61.286;2023-08-01T10:28:56;8.30;;;5.62;;
25175;SDS011;13135;55.166;61.286;2023-08-01T10:34:37;9.98;;;4.82;;
25175;SDS011;13135;55.166;61.286;2023-08-01T10:37:21;7.70;;;4.72;;
25175;SDS011;13135;55.166;61.286;2023-08-01T10:40:06;7.15;;;4.95;;
25175;SDS011;13135;55.166;61.286;2023-08-01T10:42:52;8.95;;;5.40;;
25175;SDS011;13135;55.166;61.286;2023-08-01T10:45:38;8.68;;;5.93;;
25175;SDS011;13135;55.166;61.286;2023-08-01T10:48:23;10.40;;;5.75;;
25175;SDS011;13135;55.166;61.286;2023-08-01T10:51:09;8.85;;;6.70;;
25175;SDS011;13135;55.166;61.286;2023-08-01T10:53:55;11.05;;;7.80;;
25175;SDS011;13135;55.166;61.286;2023-08-01T10:56:44;10.07;;;5.78;;
25175;SDS011;13135;55.166;61.286;2023-08-01T10:59:25;7.32;;;6.18;;
25175;SDS011;13135;55.166;61.286;2023-08-01T11:02:09;16.58;;;5.80;;
25175;SDS011;13135;55.166;61.286;2023-08-01T11:04:56;9.55;;;5.90;;
25175;SDS011;13135;55.166;61.286;2023-08-01T11:07:52;8.63;;;5.60;;
25175;SDS011;13135;55.166;61.286;2023-08-01T11:10:29;6.10;;;5.18;;
25175;SDS011;13135;55.166;61.286;2023-08-01T11:13:13;7.60;;;4.87;;
25175;SDS011;13135;55.166;61.286;2023-08-01T11:15:57;5.80;;;4.50;;
25175;SDS011;13135;55.166;61.286;2023-08-01T11:18:42;6.40;;;4.60;;
25175;SDS011;13135;55.166;61.286;2023-08-01T11:21:29;7.75;;;4.78;;
25175;SDS011;13135;55.166;61.286;2023-08-01T11:24:13;7.00;;;4.97;;
25175;SDS011;13135;55.166;61.286;2023-08-01T11:26:59;6.18;;;4.30;;
25175;SDS011;13135;55.166;61.286;2023-08-01T11:29:46;5.37;;;4.45;;
25175;SDS011;13135;55.166;61.286;2023-08-01T11:32:33;8.40;;;5.00;;
25175;SDS011;13135;55.166;61.286;2023-08-01T11:35:19;5.65;;;4.62;;
25175;SDS011;13135;55.166;61.286;2023-08-01T11:38:06;6.07;;;4.57;;
25175;SDS011;13135;55.166;61.286;2023-08-01T11:40:53;5.87;;;4.70;;
25175;SDS011;13135;55.166;61.286;2023-08-01T11:43:40;7.82;;;5.00;;
25175;SDS011;13135;55.166;61.286;2023-08-01T11:46:32;6.95;;;4.72;;
25175;SDS011;13135;55.166;61.286;2023-08-01T11:49:17;5.82;;;4.68;;
25175;SDS011;13135;55.166;61.286;2023-08-01T11:52:04;11.80;;;5.20;;
25175;SDS011;13135;55.166;61.286;2023-08-01T11:54:55;5.25;;;4.75;;
25175;SDS011;13135;55.166;61.286;2023-08-01T11:57:50;7.05;;;4.40;;
25175;SDS011;13135;55.166;61.286;2023-08-01T12:00:26;5.53;;;4.50;;
25175;SDS011;13135;55.166;61.286;2023-08-01T12:03:13;6.40;;;4.60;;
25175;SDS011;13135;55.166;61.286;2023-08-01T12:06:02;4.82;;;4.30;;
25175;SDS011;13135;55.166;61.286;2023-08-01T12:08:50;6.40;;;4.37;;
25175;SDS011;13135;55.166;61.286;2023-08-01T12:11:34;5.50;;;4.45;;
25175;SDS011;13135;55.166;61.286;2023-08-01T12:14:20;6.85;;;4.60;;
25175;SDS011;13135;55.166;61.286;2023-08-01T12:17:07;7.32;;;4.25;;
25175;SDS011;13135;55.166;61.286;2023-08-01T12:19:54;7.20;;;5.20;;
25175;SDS011;13135;55.166;61.286;2023-08-01T12:22:48;6.18;;;4.80;;
25175;SDS011;13135;55.166;61.286;2023-08-01T12:25:43;6.62;;;4.62;;
25175;SDS011;13135;55.166;61.286;2023-08-01T12:28:29;7.45;;;4.25;;
25175;SDS011;13135;55.166;61.286;2023-08-01T12:31:17;5.20;;;4.05;;
25175;SDS011;13135;55.166;61.286;2023-08-01T12:34:04;6.50;;;4.40;;
25175;SDS011;13135;55.166;61.286;2023-08-01T12:36:50;6.03;;;4.30;;
25175;SDS011;13135;55.166;61.286;2023-08-01T12:39:34;8.00;;;4.37;;
25175;SDS011;13135;55.166;61.286;2023-08-01T12:42:18;5.43;;;4.37;;
25175;SDS011;13135;55.166;61.286;2023-08-01T12:45:05;7.00;;;4.60;;
25175;SDS011;13135;55.166;61.286;2023-08-01T12:47:57;8.38;;;4.80;;
25175;SDS011;13135;55.166;61.286;2023-08-01T12:50:44;6.55;;;4.62;;
25175;SDS011;13135;55.166;61.286;2023-08-01T12:53:31;5.25;;;4.18;;
25175;SDS011;13135;55.166;61.286;2023-08-01T12:56:17;5.65;;;4.10;;
25175;SDS011;13135;55.166;61.286;2023-08-01T12:59:04;6.20;;;4.10;;
25175;SDS011;13135;55.166;61.286;2023-08-01T13:01:49;5.75;;;3.97;;
25175;SDS011;13135;55.166;61.286;2023-08-01T13:04:36;6.57;;;3.90;;
25175;SDS011;13135;55.166;61.286;2023-08-01T13:07:23;5.87;;;4.12;;
25175;SDS011;13135;55.166;61.286;2023-08-01T13:10:10;7.72;;;2.92;;
25175;SDS011;13135;55.166;61.286;2023-08-01T13:12:57;5.57;;;3.10;;
25175;SDS011;13135;55.166;61.286;2023-08-01T13:29:21;3.50;;;2.10;;
25175;SDS011;13135;55.166;61.286;2023-08-01T13:32:07;2.45;;;2.25;;
25175;SDS011;13135;55.166;61.286;2023-08-01T13:34:53;5.40;;;2.58;;
25175;SDS011;13135;55.166;61.286;2023-08-01T13:37:37;4.15;;;3.30;;
25175;SDS011;13135;55.166;61.286;2023-08-01T13:40:24;5.82;;;3.22;;
25175;SDS011;13135;55.166;61.286;2023-08-01T13:53:42;8.13;;;2.22;;
25175;SDS011;13135;55.166;61.286;2023-08-01T13:56:25;3.58;;;2.58;;
25175;SDS011;13135;55.166;61.286;2023-08-01T13:59:12;3.12;;;2.60;;
25175;SDS011;13135;55.166;61.286;2023-08-01T14:01:57;3.80;;;2.20;;
25175;SDS011;13135;55.166;61.286;2023-08-01T14:04:44;5.43;;;2.55;;
25175;SDS011;13135;55.166;61.286;2023-08-01T14:07:29;5.75;;;2.72;;
25175;SDS011;13135;55.166;61.286;2023-08-01T14:10:13;3.97;;;2.20;;
25175;SDS011;13135;55.166;61.286;2023-08-01T14:12:54;6.12;;;2.55;;
25175;SDS011;13135;55.166;61.286;2023-08-01T14:15:38;3.55;;;2.40;;
25175;SDS011;13135;55.166;61.286;2023-08-01T14:18:31;7.75;;;2.75;;
25175;SDS011;13135;55.166;61.286;2023-08-01T14:21:18;4.78;;;2.33;;
25175;SDS011;13135;55.166;61.286;2023-08-01T14:24:02;2.92;;;1.95;;
25175;SDS011;13135;55.166;61.286;2023-08-01T14:26:47;4.43;;;2.50;;
25175;SDS011;13135;55.166;61.286;2023-08-01T14:29:33;4.60;;;2.00;;
25175;SDS011;13135;55.166;61.286;2023-08-01T14:32:18;2.75;;;1.95;;
25175;SDS011;13135;55.166;61.286;2023-08-01T14:35:03;4.15;;;2.10;;
25175;SDS011;13135;55.166;61.286;2023-08-01T14:38:04;2.40;;;2.00;;
25175;SDS011;13135;55.166;61.286;2023-08-01T14:40:48;3.67;;;2.47;;
25175;SDS011;13135;55.166;61.286;2023-08-01T14:43:33;3.90;;;2.37;;
25175;SDS011;13135;55.166;61.286;2023-08-01T14:46:18;4.87;;;2.05;;
25175;SDS011;13135;55.166;61.286;2023-08-01T14:49:03;5.53;;;2.83;;
25175;SDS011;13135;55.166;61.286;2023-08-01T14:51:48;3.30;;;2.42;;
25175;SDS011;13135;55.166;61.286;2023-08-01T14:54:32;4.80;;;2.87;;
25175;SDS011;13135;55.166;61.286;2023-08-01T14:57:17;5.65;;;2.60;;
25175;SDS011;13135;55.166;61.286;2023-08-01T15:00:02;3.83;;;2.40;;
25175;SDS011;13135;55.166;61.286;2023-08-01T15:02:48;5.15;;;2.50;;
25175;SDS011;13135;55.166;61.286;2023-08-01T15:05:33;4.18;;;3.10;;
25175;SDS011;13135;55.166;61.286;2023-08-01T15:08:18;3.67;;;2.28;;
25175;SDS011;13135;55.166;61.286;2023-08-01T15:11:04;4.53;;;2.80;;
25175;SDS011;13135;55.166;61.286;2023-08-01T15:13:49;3.05;;;2.70;;
25175;SDS011;13135;55.166;61.286;2023-08-01T15:16:33;5.57;;;3.00;;
25175;SDS011;13135;55.166;61.286;2023-08-01T15:19:17;5.00;;;3.25;;
25175;SDS011;13135;55.166;61.286;2023-08-01T15:22:01;3.75;;;3.20;;
25175;SDS011;13135;55.166;61.286;2023-08-01T15:24:46;3.65;;;2.92;;
25175;SDS011;13135;55.166;61.286;2023-08-01T15:27:33;5.25;;;3.40;;
25175;SDS011;13135;55.166;61.286;2023-08-01T15:30:19;4.87;;;3.25;;
25175;SDS011;13135;55.166;61.286;2023-08-01T15:33:02;4.47;;;3.83;;
25175;SDS011;13135;55.166;61.286;2023-08-01T15:35:46;5.85;;;3.37;;
25175;SDS011;13135;55.166;61.286;2023-08-01T15:38:31;4.68;;;3.00;;
25175;SDS011;13135;55.166;61.286;2023-08-01T15:41:18;5.47;;;3.60;;
25175;SDS011;13135;55.166;61.286;2023-08-01T15:44:00;5.95;;;3.58;;
25175;SDS011;13135;55.166;61.286;2023-08-01T15:46:45;15.45;;;3.70;;
25175;SDS011;13135;55.166;61.286;2023-08-01T15:49:27;6.97;;;3.97;;
25175;SDS011;13135;55.166;61.286;2023-08-01T15:52:11;5.07;;;3.75;;
25175;SDS011;13135;55.166;61.286;2023-08-01T15:54:58;5.50;;;3.80;;
25175;SDS011;13135;55.166;61.286;2023-08-01T15:57:41;7.00;;;3.83;;
25175;SDS011;13135;55.166;61.286;2023-08-01T16:00:28;6.32;;;4.10;;
25175;SDS011;13135;55.166;61.286;2023-08-01T16:03:12;4.95;;;4.12;;
25175;SDS011;13135;55.166;61.286;2023-08-01T16:05:57;6.68;;;4.12;;
25175;SDS011;13135;55.166;61.286;2023-08-01T16:08:42;5.82;;;4.50;;
25175;SDS011;13135;55.166;61.286;2023-08-01T16:11:27;8.10;;;4.80;;
25175;SDS011;13135;55.166;61.286;2023-08-01T16:14:12;7.35;;;5.40;;
25175;SDS011;13135;55.166;61.286;2023-08-01T16:16:57;9.00;;;6.03;;
25175;SDS011;13135;55.166;61.286;2023-08-01T16:19:39;8.73;;;5.32;;
25175;SDS011;13135;55.166;61.286;2023-08-01T16:22:24;5.80;;;4.80;;
25175;SDS011;13135;55.166;61.286;2023-08-01T16:25:11;6.03;;;5.07;;
25175;SDS011;13135;55.166;61.286;2023-08-01T16:27:57;8.10;;;4.87;;
25175;SDS011;13135;55.166;61.286;2023-08-01T16:30:41;6.03;;;4.82;;
25175;SDS011;13135;55.166;61.286;2023-08-01T16:33:25;9.23;;;5.87;;
25175;SDS011;13135;55.166;61.286;2023-08-01T16:46:41;9.38;;;7.00;;
25175;SDS011;13135;55.166;61.286;2023-08-01T16:49:28;7.97;;;6.53;;
25175;SDS011;13135;55.166;61.286;2023-08-01T16:52:15;13.43;;;7.47;;
25175;SDS011;13135;55.166;61.286;2023-08-01T16:55:00;9.75;;;7.40;;
25175;SDS011;13135;55.166;61.286;2023-08-01T16:57:44;11.52;;;7.03;;
25175;SDS011;13135;55.166;61.286;2023-08-01T17:00:31;11.55;;;8.23;;
25175;SDS011;13135;55.166;61.286;2023-08-01T17:03:17;9.85;;;6.87;;
25175;SDS011;13135;55.166;61.286;2023-08-01T17:06:09;9.95;;;7.62;;
25175;SDS011;13135;55.166;61.286;2023-08-01T17:08:54;10.57;;;7.47;;